sensor_id;sensor_type;location;lat;lon;timestamp;P1;durP1;ratioP1;P2;durP2;ratioP2
22794;SDS011;11564;50.920;11.612;2022-07-25T00:01:57;3.27;;;3.03;;
22794;SDS011;11564;50.920;11.612;2022-07-25T00:04:23;3.30;;;3.10;;
22794;SDS011;11564;50.920;11.612;2022-07-25T00:06:48;4.23;;;3.93;;
22794;SDS011;11564;50.920;11.612;2022-07-25T00:09:14;3.53;;;3.23;;
22794;SDS011;11564;50.920;11.612;2022-07-25T00:11:40;5.60;;;3.00;;
22794;SDS011;11564;50.920;11.612;2022-07-25T00:14:05;3.97;;;3.57;;
22794;SDS011;11564;50.920;11.612;2022-07-25T00:16:31;3.50;;;3.20;;
22794;SDS011;11564;50.920;11.612;2022-07-25T00:18:57;3.90;;;3.40;;
22794;SDS011;11564;50.920;11.612;2022-07-25T00:21:22;6.33;;;3.00;;
22794;SDS011;11564;50.920;11.612;2022-07-25T00:23:48;3.93;;;3.53;;
22794;SDS011;11564;50.920;11.612;2022-07-25T00:26:14;5.63;;;3.23;;
22794;SDS011;11564;50.920;11.612;2022-07-25T00:28:40;5.00;;;3.30;;
22794;SDS011;11564;50.920;11.612;2022-07-25T00:31:06;10.73;;;3.90;;
22794;SDS011;11564;50.920;11.612;2022-07-25T00:33:32;5.60;;;4.03;;
22794;SDS011;11564;50.920;11.612;2022-07-25T00:35:58;3.47;;;3.27;;
22794;SDS011;11564;50.920;11.612;2022-07-25T00:38:23;3.97;;;3.67;;
22794;SDS011;11564;50.920;11.612;2022-07-25T00:40:49;8.40;;;3.73;;
22794;SDS011;11564;50.920;11.612;2022-07-25T00:43:14;4.23;;;3.83;;
22794;SDS011;11564;50.920;11.612;2022-07-25T00:45:40;3.80;;;3.40;;
22794;SDS011;11564;50.920;11.612;2022-07-25T00:48:05;4.40;;;3.67;;
22794;SDS011;11564;50.920;11.612;2022-07-25T00:50:32;4.30;;;4.00;;
22794;SDS011;11564;50.920;11.612;2022-07-25T00:52:58;3.37;;;3.07;;
22794;SDS011;11564;50.920;11.612;2022-07-25T00:55:24;4.63;;;3.63;;
22794;SDS011;11564;50.920;11.612;2022-07-25T00:57:50;4.00;;;3.70;;
22794;SDS011;11564;50.920;11.612;2022-07-25T01:00:16;4.83;;;3.80;;
22794;SDS011;11564;50.920;11.612;2022-07-25T01:02:43;6.23;;;3.40;;
22794;SDS011;11564;50.920;11.612;2022-07-25T01:05:09;5.00;;;4.10;;
22794;SDS011;11564;50.920;11.612;2022-07-25T01:07:36;4.33;;;3.93;;
22794;SDS011;11564;50.920;11.612;2022-07-25T01:10:03;4.60;;;4.20;;
22794;SDS011;11564;50.920;11.612;2022-07-25T01:12:29;4.13;;;3.73;;
22794;SDS011;11564;50.920;11.612;2022-07-25T01:14:55;5.73;;;4.87;;
22794;SDS011;11564;50.920;11.612;2022-07-25T01:17:22;5.27;;;3.97;;
22794;SDS011;11564;50.920;11.612;2022-07-25T01:19:48;3.90;;;3.60;;
22794;SDS011;11564;50.920;11.612;2022-07-25T01:22:15;4.40;;;4.10;;
22794;SDS011;11564;50.920;11.612;2022-07-25T01:24:41;4.73;;;4.20;;
22794;SDS011;11564;50.920;11.612;2022-07-25T01:27:07;4.73;;;4.33;;
22794;SDS011;11564;50.920;11.612;2022-07-25T01:29:33;5.17;;;4.70;;
22794;SDS011;11564;50.920;11.612;2022-07-25T01:31:59;5.43;;;4.20;;
22794;SDS011;11564;50.920;11.612;2022-07-25T01:34:24;4.70;;;4.40;;
22794;SDS011;11564;50.920;11.612;2022-07-25T01:36:50;3.80;;;3.50;;
22794;SDS011;11564;50.920;11.612;2022-07-25T01:39:15;6.40;;;4.93;;
22794;SDS011;11564;50.920;11.612;2022-07-25T01:41:41;4.33;;;4.13;;
22794;SDS011;11564;50.920;11.612;2022-07-25T01:44:07;6.70;;;4.60;;
22794;SDS011;11564;50.920;11.612;2022-07-25T01:46:32;5.47;;;3.97;;
22794;SDS011;11564;50.920;11.612;2022-07-25T01:48:58;4.17;;;3.87;;
22794;SDS011;11564;50.920;11.612;2022-07-25T01:51:24;6.53;;;4.57;;
22794;SDS011;11564;50.920;11.612;2022-07-25T01:53:49;6.03;;;4.40;;
22794;SDS011;11564;50.920;11.612;2022-07-25T01:56:15;4.67;;;4.37;;
22794;SDS011;11564;50.920;11.612;2022-07-25T01:58:41;4.67;;;4.27;;
22794;SDS011;11564;50.920;11.612;2022-07-25T02:01:06;4.43;;;3.87;;
22794;SDS011;11564;50.920;11.612;2022-07-25T02:03:32;6.17;;;4.23;;
22794;SDS011;11564;50.920;11.612;2022-07-25T02:06:02;6.30;;;4.50;;
22794;SDS011;11564;50.920;11.612;2022-07-25T02:08:30;5.40;;;4.90;;
22794;SDS011;11564;50.920;11.612;2022-07-25T02:10:56;4.00;;;3.70;;
22794;SDS011;11564;50.920;11.612;2022-07-25T02:13:22;6.93;;;4.27;;
22794;SDS011;11564;50.920;11.612;2022-07-25T02:15:48;4.60;;;4.20;;
22794;SDS011;11564;50.920;11.612;2022-07-25T02:18:14;4.70;;;4.33;;
22794;SDS011;11564;50.920;11.612;2022-07-25T02:20:40;5.77;;;4.13;;
22794;SDS011;11564;50.920;11.612;2022-07-25T02:23:06;4.30;;;4.00;;
22794;SDS011;11564;50.920;11.612;2022-07-25T02:25:32;4.73;;;4.23;;
22794;SDS011;11564;50.920;11.612;2022-07-25T02:27:58;5.10;;;4.10;;
22794;SDS011;11564;50.920;11.612;2022-07-25T02:30:23;5.73;;;4.47;;
22794;SDS011;11564;50.920;11.612;2022-07-25T02:32:50;5.23;;;4.77;;
22794;SDS011;11564;50.920;11.612;2022-07-25T02:35:15;12.13;;;4.83;;
22794;SDS011;11564;50.920;11.612;2022-07-25T02:37:41;5.23;;;4.83;;
22794;SDS011;11564;50.920;11.612;2022-07-25T02:40:07;6.13;;;4.50;;
22794;SDS011;11564;50.920;11.612;2022-07-25T02:42:33;8.63;;;5.20;;
22794;SDS011;11564;50.920;11.612;2022-07-25T02:44:59;6.13;;;5.33;;
22794;SDS011;11564;50.920;11.612;2022-07-25T02:47:25;7.23;;;5.60;;
22794;SDS011;11564;50.920;11.612;2022-07-25T02:49:50;6.47;;;5.27;;
22794;SDS011;11564;50.920;11.612;2022-07-25T02:52:16;9.83;;;5.70;;
22794;SDS011;11564;50.920;11.612;2022-07-25T02:54:41;5.33;;;4.83;;
22794;SDS011;11564;50.920;11.612;2022-07-25T02:57:07;5.30;;;4.90;;
22794;SDS011;11564;50.920;11.612;2022-07-25T02:59:33;7.50;;;5.80;;
22794;SDS011;11564;50.920;11.612;2022-07-25T03:01:58;7.30;;;5.87;;
22794;SDS011;11564;50.920;11.612;2022-07-25T03:04:24;6.67;;;6.07;;
22794;SDS011;11564;50.920;11.612;2022-07-25T03:06:49;6.97;;;5.97;;
22794;SDS011;11564;50.920;11.612;2022-07-25T03:09:15;7.73;;;7.03;;
22794;SDS011;11564;50.920;11.612;2022-07-25T03:11:41;6.60;;;5.57;;
22794;SDS011;11564;50.920;11.612;2022-07-25T03:14:07;7.50;;;6.80;;
22794;SDS011;11564;50.920;11.612;2022-07-25T03:16:32;5.93;;;5.33;;
22794;SDS011;11564;50.920;11.612;2022-07-25T03:18:58;8.80;;;5.87;;
22794;SDS011;11564;50.920;11.612;2022-07-25T03:21:24;6.77;;;6.10;;
22794;SDS011;11564;50.920;11.612;2022-07-25T03:23:49;7.73;;;5.87;;
22794;SDS011;11564;50.920;11.612;2022-07-25T03:26:15;5.87;;;5.37;;
22794;SDS011;11564;50.920;11.612;2022-07-25T03:28:40;9.70;;;6.60;;
22794;SDS011;11564;50.920;11.612;2022-07-25T03:31:06;7.40;;;6.80;;
22794;SDS011;11564;50.920;11.612;2022-07-25T03:33:32;9.60;;;7.60;;
22794;SDS011;11564;50.920;11.612;2022-07-25T03:35:57;10.43;;;8.13;;
22794;SDS011;11564;50.920;11.612;2022-07-25T03:38:23;8.40;;;7.60;;
22794;SDS011;11564;50.920;11.612;2022-07-25T03:40:49;7.70;;;6.77;;
22794;SDS011;11564;50.920;11.612;2022-07-25T03:43:14;8.00;;;7.20;;
22794;SDS011;11564;50.920;11.612;2022-07-25T03:45:40;8.20;;;7.23;;
22794;SDS011;11564;50.920;11.612;2022-07-25T03:48:06;8.30;;;7.03;;
22794;SDS011;11564;50.920;11.612;2022-07-25T03:50:32;8.50;;;7.40;;
22794;SDS011;11564;50.920;11.612;2022-07-25T03:52:57;9.03;;;6.60;;
22794;SDS011;11564;50.920;11.612;2022-07-25T03:55:23;7.83;;;7.00;;
22794;SDS011;11564;50.920;11.612;2022-07-25T03:57:48;8.40;;;7.70;;
22794;SDS011;11564;50.920;11.612;2022-07-25T04:00:14;7.50;;;6.90;;
22794;SDS011;11564;50.920;11.612;2022-07-25T04:02:41;7.70;;;6.23;;
22794;SDS011;11564;50.920;11.612;2022-07-25T04:05:07;7.80;;;7.20;;
22794;SDS011;11564;50.920;11.612;2022-07-25T04:07:34;7.10;;;6.40;;
22794;SDS011;11564;50.920;11.612;2022-07-25T04:09:59;8.30;;;7.43;;
22794;SDS011;11564;50.920;11.612;2022-07-25T04:12:25;9.67;;;8.20;;
22794;SDS011;11564;50.920;11.612;2022-07-25T04:14:51;8.80;;;7.90;;
22794;SDS011;11564;50.920;11.612;2022-07-25T04:17:17;7.50;;;5.90;;
22794;SDS011;11564;50.920;11.612;2022-07-25T04:19:43;9.70;;;6.77;;
22794;SDS011;11564;50.920;11.612;2022-07-25T04:22:08;9.20;;;6.67;;
22794;SDS011;11564;50.920;11.612;2022-07-25T04:24:34;8.33;;;6.50;;
22794;SDS011;11564;50.920;11.612;2022-07-25T04:26:59;13.47;;;8.03;;
22794;SDS011;11564;50.920;11.612;2022-07-25T04:29:25;8.47;;;7.60;;
22794;SDS011;11564;50.920;11.612;2022-07-25T04:31:51;9.20;;;6.63;;
22794;SDS011;11564;50.920;11.612;2022-07-25T04:34:17;7.57;;;6.23;;
22794;SDS011;11564;50.920;11.612;2022-07-25T04:36:42;5.90;;;5.27;;
22794;SDS011;11564;50.920;11.612;2022-07-25T04:39:08;13.17;;;6.30;;
22794;SDS011;11564;50.920;11.612;2022-07-25T04:41:33;6.70;;;6.10;;
22794;SDS011;11564;50.920;11.612;2022-07-25T04:43:59;6.37;;;5.77;;
22794;SDS011;11564;50.920;11.612;2022-07-25T04:46:25;10.60;;;6.43;;
22794;SDS011;11564;50.920;11.612;2022-07-25T04:48:50;7.37;;;6.53;;
22794;SDS011;11564;50.920;11.612;2022-07-25T04:51:16;8.93;;;7.60;;
22794;SDS011;11564;50.920;11.612;2022-07-25T04:53:42;11.73;;;7.73;;
22794;SDS011;11564;50.920;11.612;2022-07-25T04:56:09;8.77;;;7.77;;
22794;SDS011;11564;50.920;11.612;2022-07-25T04:58:34;13.53;;;6.87;;
22794;SDS011;11564;50.920;11.612;2022-07-25T05:01:00;9.83;;;7.10;;
22794;SDS011;11564;50.920;11.612;2022-07-25T05:03:26;10.10;;;6.47;;
22794;SDS011;11564;50.920;11.612;2022-07-25T05:05:52;7.40;;;5.67;;
22794;SDS011;11564;50.920;11.612;2022-07-25T05:08:17;9.60;;;8.00;;
22794;SDS011;11564;50.920;11.612;2022-07-25T05:10:43;7.23;;;6.63;;
22794;SDS011;11564;50.920;11.612;2022-07-25T05:13:08;8.13;;;7.23;;
22794;SDS011;11564;50.920;11.612;2022-07-25T05:15:34;7.63;;;6.90;;
22794;SDS011;11564;50.920;11.612;2022-07-25T05:18:00;7.03;;;5.67;;
22794;SDS011;11564;50.920;11.612;2022-07-25T05:20:25;13.60;;;7.10;;
22794;SDS011;11564;50.920;11.612;2022-07-25T05:22:52;6.20;;;5.60;;
22794;SDS011;11564;50.920;11.612;2022-07-25T05:25:17;10.47;;;6.13;;
22794;SDS011;11564;50.920;11.612;2022-07-25T05:27:44;7.20;;;6.50;;
22794;SDS011;11564;50.920;11.612;2022-07-25T05:30:10;11.33;;;7.33;;
22794;SDS011;11564;50.920;11.612;2022-07-25T05:32:37;10.80;;;6.83;;
22794;SDS011;11564;50.920;11.612;2022-07-25T05:35:04;14.03;;;6.40;;
22794;SDS011;11564;50.920;11.612;2022-07-25T05:37:32;9.27;;;7.40;;
22794;SDS011;11564;50.920;11.612;2022-07-25T05:39:58;11.70;;;6.90;;
22794;SDS011;11564;50.920;11.612;2022-07-25T05:42:24;9.00;;;6.80;;
22794;SDS011;11564;50.920;11.612;2022-07-25T05:44:50;11.50;;;6.40;;
22794;SDS011;11564;50.920;11.612;2022-07-25T05:47:16;12.27;;;7.87;;
22794;SDS011;11564;50.920;11.612;2022-07-25T05:49:41;22.30;;;7.50;;
22794;SDS011;11564;50.920;11.612;2022-07-25T05:52:07;13.23;;;6.43;;
22794;SDS011;11564;50.920;11.612;2022-07-25T05:54:33;16.23;;;6.53;;
22794;SDS011;11564;50.920;11.612;2022-07-25T05:56:59;15.70;;;6.30;;
22794;SDS011;11564;50.920;11.612;2022-07-25T05:59:25;21.43;;;7.40;;
22794;SDS011;11564;50.920;11.612;2022-07-25T06:01:51;9.03;;;6.50;;
22794;SDS011;11564;50.920;11.612;2022-07-25T06:04:17;9.13;;;6.80;;
22794;SDS011;11564;50.920;11.612;2022-07-25T06:06:42;11.73;;;7.10;;
22794;SDS011;11564;50.920;11.612;2022-07-25T06:09:14;8.87;;;7.53;;
22794;SDS011;11564;50.920;11.612;2022-07-25T06:11:47;7.90;;;7.20;;
22794;SDS011;11564;50.920;11.612;2022-07-25T06:14:13;9.33;;;7.97;;
22794;SDS011;11564;50.920;11.612;2022-07-25T06:16:39;9.83;;;8.00;;
22794;SDS011;11564;50.920;11.612;2022-07-25T06:19:04;8.67;;;7.80;;
22794;SDS011;11564;50.920;11.612;2022-07-25T06:21:30;10.83;;;8.17;;
22794;SDS011;11564;50.920;11.612;2022-07-25T06:23:56;7.97;;;7.30;;
22794;SDS011;11564;50.920;11.612;2022-07-25T06:26:21;9.27;;;8.00;;
22794;SDS011;11564;50.920;11.612;2022-07-25T06:28:48;9.00;;;6.97;;
22794;SDS011;11564;50.920;11.612;2022-07-25T06:31:14;8.03;;;7.33;;
22794;SDS011;11564;50.920;11.612;2022-07-25T06:33:40;20.73;;;7.43;;
22794;SDS011;11564;50.920;11.612;2022-07-25T06:36:06;9.57;;;8.02;;
22794;SDS011;11564;50.920;11.612;2022-07-25T06:38:31;8.30;;;7.20;;
22794;SDS011;11564;50.920;11.612;2022-07-25T06:40:57;8.93;;;8.00;;
22794;SDS011;11564;50.920;11.612;2022-07-25T06:43:23;8.00;;;7.20;;
22794;SDS011;11564;50.920;11.612;2022-07-25T06:45:49;9.77;;;7.30;;
22794;SDS011;11564;50.920;11.612;2022-07-25T06:48:15;8.83;;;8.03;;
22794;SDS011;11564;50.920;11.612;2022-07-25T06:50:41;9.43;;;7.90;;
22794;SDS011;11564;50.920;11.612;2022-07-25T06:53:07;8.00;;;7.20;;
22794;SDS011;11564;50.920;11.612;2022-07-25T06:55:33;11.30;;;6.80;;
22794;SDS011;11564;50.920;11.612;2022-07-25T06:57:59;8.23;;;7.50;;
22794;SDS011;11564;50.920;11.612;2022-07-25T07:00:24;11.83;;;7.57;;
22794;SDS011;11564;50.920;11.612;2022-07-25T07:02:57;17.73;;;8.70;;
22794;SDS011;11564;50.920;11.612;2022-07-25T07:05:25;9.10;;;8.20;;
22794;SDS011;11564;50.920;11.612;2022-07-25T07:07:52;11.27;;;7.43;;
22794;SDS011;11564;50.920;11.612;2022-07-25T07:10:19;8.63;;;7.83;;
22794;SDS011;11564;50.920;11.612;2022-07-25T07:12:46;11.10;;;7.40;;
22794;SDS011;11564;50.920;11.612;2022-07-25T07:15:12;7.97;;;7.27;;
22794;SDS011;11564;50.920;11.612;2022-07-25T07:17:38;8.97;;;8.17;;
22794;SDS011;11564;50.920;11.612;2022-07-25T07:20:05;8.27;;;7.47;;
22794;SDS011;11564;50.920;11.612;2022-07-25T07:22:41;11.03;;;7.50;;
22794;SDS011;11564;50.920;11.612;2022-07-25T07:25:12;9.17;;;7.87;;
22794;SDS011;11564;50.920;11.612;2022-07-25T07:27:39;8.50;;;7.17;;
22794;SDS011;11564;50.920;11.612;2022-07-25T07:30:04;9.40;;;7.10;;
22794;SDS011;11564;50.920;11.612;2022-07-25T07:32:30;8.73;;;7.83;;
22794;SDS011;11564;50.920;11.612;2022-07-25T07:34:56;8.43;;;7.60;;
22794;SDS011;11564;50.920;11.612;2022-07-25T07:37:22;8.67;;;7.87;;
22794;SDS011;11564;50.920;11.612;2022-07-25T07:39:48;9.80;;;7.73;;
22794;SDS011;11564;50.920;11.612;2022-07-25T07:42:14;9.10;;;7.83;;
22794;SDS011;11564;50.920;11.612;2022-07-25T07:44:39;9.30;;;8.07;;
22794;SDS011;11564;50.920;11.612;2022-07-25T07:47:06;8.63;;;7.93;;
22794;SDS011;11564;50.920;11.612;2022-07-25T07:49:32;8.73;;;7.77;;
22794;SDS011;11564;50.920;11.612;2022-07-25T07:51:57;7.97;;;7.17;;
22794;SDS011;11564;50.920;11.612;2022-07-25T07:54:23;7.87;;;7.20;;
22794;SDS011;11564;50.920;11.612;2022-07-25T07:57:07;9.17;;;8.00;;
22794;SDS011;11564;50.920;11.612;2022-07-25T07:59:32;9.47;;;8.40;;
22794;SDS011;11564;50.920;11.612;2022-07-25T08:01:58;7.53;;;6.80;;
22794;SDS011;11564;50.920;11.612;2022-07-25T08:04:23;8.50;;;7.60;;
22794;SDS011;11564;50.920;11.612;2022-07-25T08:06:49;9.10;;;8.20;;
22794;SDS011;11564;50.920;11.612;2022-07-25T08:09:15;11.27;;;7.73;;
22794;SDS011;11564;50.920;11.612;2022-07-25T08:11:40;12.43;;;7.73;;
22794;SDS011;11564;50.920;11.612;2022-07-25T08:14:06;9.43;;;7.93;;
22794;SDS011;11564;50.920;11.612;2022-07-25T08:16:32;10.53;;;7.30;;
22794;SDS011;11564;50.920;11.612;2022-07-25T08:18:58;14.30;;;7.10;;
22794;SDS011;11564;50.920;11.612;2022-07-25T08:21:23;8.87;;;8.07;;
22794;SDS011;11564;50.920;11.612;2022-07-25T08:23:49;7.40;;;6.70;;
22794;SDS011;11564;50.920;11.612;2022-07-25T08:26:15;8.00;;;7.33;;
22794;SDS011;11564;50.920;11.612;2022-07-25T08:28:40;8.03;;;7.23;;
22794;SDS011;11564;50.920;11.612;2022-07-25T08:31:07;7.20;;;6.70;;
22794;SDS011;11564;50.920;11.612;2022-07-25T08:33:32;9.27;;;6.97;;
22794;SDS011;11564;50.920;11.612;2022-07-25T08:35:58;10.93;;;7.20;;
22794;SDS011;11564;50.920;11.612;2022-07-25T08:38:25;13.27;;;7.20;;
22794;SDS011;11564;50.920;11.612;2022-07-25T08:40:52;6.70;;;6.20;;
22794;SDS011;11564;50.920;11.612;2022-07-25T08:43:19;9.07;;;7.20;;
22794;SDS011;11564;50.920;11.612;2022-07-25T08:45:45;8.57;;;7.00;;
22794;SDS011;11564;50.920;11.612;2022-07-25T08:48:16;18.23;;;7.27;;
22794;SDS011;11564;50.920;11.612;2022-07-25T08:50:45;15.90;;;7.20;;
22794;SDS011;11564;50.920;11.612;2022-07-25T08:53:12;7.60;;;6.90;;
22794;SDS011;11564;50.920;11.612;2022-07-25T08:55:39;7.03;;;6.40;;
22794;SDS011;11564;50.920;11.612;2022-07-25T08:58:04;7.70;;;6.00;;
22794;SDS011;11564;50.920;11.612;2022-07-25T09:00:30;14.43;;;6.20;;
22794;SDS011;11564;50.920;11.612;2022-07-25T09:02:59;6.77;;;6.17;;
22794;SDS011;11564;50.920;11.612;2022-07-25T09:05:27;6.97;;;6.33;;
22794;SDS011;11564;50.920;11.612;2022-07-25T09:07:54;6.20;;;5.60;;
22794;SDS011;11564;50.920;11.612;2022-07-25T09:10:24;6.63;;;6.03;;
22794;SDS011;11564;50.920;11.612;2022-07-25T09:13:01;9.27;;;6.00;;
22794;SDS011;11564;50.920;11.612;2022-07-25T09:15:30;7.53;;;6.80;;
22794;SDS011;11564;50.920;11.612;2022-07-25T09:17:58;5.97;;;5.47;;
22794;SDS011;11564;50.920;11.612;2022-07-25T09:20:35;7.77;;;6.57;;
22794;SDS011;11564;50.920;11.612;2022-07-25T09:23:12;6.53;;;5.80;;
22794;SDS011;11564;50.920;11.612;2022-07-25T09:25:39;6.33;;;5.77;;
22794;SDS011;11564;50.920;11.612;2022-07-25T09:28:12;7.03;;;5.70;;
22794;SDS011;11564;50.920;11.612;2022-07-25T09:30:40;7.13;;;5.30;;
22794;SDS011;11564;50.920;11.612;2022-07-25T09:33:18;6.20;;;5.67;;
22794;SDS011;11564;50.920;11.612;2022-07-25T09:35:44;5.97;;;5.57;;
22794;SDS011;11564;50.920;11.612;2022-07-25T09:38:11;6.17;;;5.67;;
22794;SDS011;11564;50.920;11.612;2022-07-25T09:40:38;6.47;;;5.93;;
22794;SDS011;11564;50.920;11.612;2022-07-25T09:43:04;6.77;;;6.10;;
22794;SDS011;11564;50.920;11.612;2022-07-25T09:45:30;5.63;;;5.13;;
22794;SDS011;11564;50.920;11.612;2022-07-25T09:47:56;6.87;;;6.23;;
22794;SDS011;11564;50.920;11.612;2022-07-25T09:50:28;6.70;;;5.63;;
22794;SDS011;11564;50.920;11.612;2022-07-25T09:52:56;9.30;;;5.60;;
22794;SDS011;11564;50.920;11.612;2022-07-25T09:55:25;8.20;;;5.80;;
22794;SDS011;11564;50.920;11.612;2022-07-25T09:57:52;6.47;;;5.97;;
22794;SDS011;11564;50.920;11.612;2022-07-25T10:00:19;5.97;;;5.47;;
22794;SDS011;11564;50.920;11.612;2022-07-25T10:08:26;5.80;;;5.30;;
22794;SDS011;11564;50.920;11.612;2022-07-25T10:10:54;5.90;;;5.40;;
22794;SDS011;11564;50.920;11.612;2022-07-25T10:13:30;5.60;;;5.23;;
22794;SDS011;11564;50.920;11.612;2022-07-25T10:15:58;6.63;;;5.33;;
22794;SDS011;11564;50.920;11.612;2022-07-25T10:18:25;6.83;;;5.80;;
22794;SDS011;11564;50.920;11.612;2022-07-25T10:21:07;6.03;;;5.57;;
22794;SDS011;11564;50.920;11.612;2022-07-25T10:23:34;5.87;;;5.47;;
22794;SDS011;11564;50.920;11.612;2022-07-25T10:26:06;7.77;;;5.50;;
22794;SDS011;11564;50.920;11.612;2022-07-25T10:28:48;6.43;;;5.30;;
22794;SDS011;11564;50.920;11.612;2022-07-25T10:31:15;10.50;;;5.30;;
22794;SDS011;11564;50.920;11.612;2022-07-25T10:34:01;5.70;;;5.30;;
22794;SDS011;11564;50.920;11.612;2022-07-25T10:36:39;7.40;;;5.80;;
22794;SDS011;11564;50.920;11.612;2022-07-25T10:39:15;6.23;;;5.70;;
22794;SDS011;11564;50.920;11.612;2022-07-25T10:41:42;7.00;;;5.90;;
22794;SDS011;11564;50.920;11.612;2022-07-25T10:44:20;5.40;;;5.07;;
22794;SDS011;11564;50.920;11.612;2022-07-25T10:46:45;5.20;;;4.80;;
22794;SDS011;11564;50.920;11.612;2022-07-25T10:49:19;6.40;;;5.40;;
22794;SDS011;11564;50.920;11.612;2022-07-25T10:51:56;5.73;;;5.23;;
22794;SDS011;11564;50.920;11.612;2022-07-25T10:54:23;5.40;;;5.10;;
22794;SDS011;11564;50.920;11.612;2022-07-25T10:56:53;5.87;;;5.27;;
22794;SDS011;11564;50.920;11.612;2022-07-25T10:59:37;5.40;;;4.90;;
22794;SDS011;11564;50.920;11.612;2022-07-25T11:02:04;5.03;;;4.63;;
22794;SDS011;11564;50.920;11.612;2022-07-25T11:04:32;5.20;;;4.77;;
22794;SDS011;11564;50.920;11.612;2022-07-25T11:07:08;5.80;;;5.50;;
22794;SDS011;11564;50.920;11.612;2022-07-25T11:09:38;5.67;;;5.27;;
22794;SDS011;11564;50.920;11.612;2022-07-25T11:12:05;7.37;;;4.90;;
22794;SDS011;11564;50.920;11.612;2022-07-25T11:14:36;6.10;;;5.50;;
22794;SDS011;11564;50.920;11.612;2022-07-25T11:17:19;7.80;;;5.67;;
22794;SDS011;11564;50.920;11.612;2022-07-25T11:19:55;5.10;;;4.67;;
22794;SDS011;11564;50.920;11.612;2022-07-25T11:22:21;6.57;;;5.00;;
22794;SDS011;11564;50.920;11.612;2022-07-25T11:24:47;6.17;;;5.00;;
22794;SDS011;11564;50.920;11.612;2022-07-25T11:27:19;7.73;;;4.90;;
22794;SDS011;11564;50.920;11.612;2022-07-25T11:29:49;8.23;;;5.33;;
22794;SDS011;11564;50.920;11.612;2022-07-25T11:32:15;6.50;;;5.53;;
22794;SDS011;11564;50.920;11.612;2022-07-25T11:34:46;6.03;;;5.43;;
22794;SDS011;11564;50.920;11.612;2022-07-25T11:37:14;7.67;;;5.90;;
22794;SDS011;11564;50.920;11.612;2022-07-25T11:39:43;5.77;;;5.37;;
22794;SDS011;11564;50.920;11.612;2022-07-25T11:42:13;5.83;;;5.43;;
22794;SDS011;11564;50.920;11.612;2022-07-25T11:44:42;4.90;;;4.50;;
22794;SDS011;11564;50.920;11.612;2022-07-25T11:47:09;5.33;;;4.83;;
22794;SDS011;11564;50.920;11.612;2022-07-25T11:49:54;6.00;;;5.50;;
22794;SDS011;11564;50.920;11.612;2022-07-25T11:52:26;5.57;;;5.20;;
22794;SDS011;11564;50.920;11.612;2022-07-25T11:55:03;7.00;;;5.40;;
22794;SDS011;11564;50.920;11.612;2022-07-25T11:57:34;8.20;;;5.60;;
22794;SDS011;11564;50.920;11.612;2022-07-25T12:00:07;5.60;;;4.90;;
22794;SDS011;11564;50.920;11.612;2022-07-25T12:02:42;6.07;;;5.60;;
22794;SDS011;11564;50.920;11.612;2022-07-25T12:05:09;9.83;;;5.03;;
22794;SDS011;11564;50.920;11.612;2022-07-25T12:10:10;6.07;;;4.83;;
22794;SDS011;11564;50.920;11.612;2022-07-25T12:12:40;9.23;;;4.67;;
22794;SDS011;11564;50.920;11.612;2022-07-25T12:15:08;6.33;;;5.50;;
22794;SDS011;11564;50.920;11.612;2022-07-25T12:17:34;4.73;;;4.33;;
22794;SDS011;11564;50.920;11.612;2022-07-25T12:20:00;5.47;;;4.90;;
22794;SDS011;11564;50.920;11.612;2022-07-25T12:22:25;5.60;;;5.03;;
22794;SDS011;11564;50.920;11.612;2022-07-25T12:24:51;5.83;;;5.43;;
22794;SDS011;11564;50.920;11.612;2022-07-25T12:27:16;5.70;;;5.20;;
22794;SDS011;11564;50.920;11.612;2022-07-25T12:29:42;5.87;;;5.37;;
22794;SDS011;11564;50.920;11.612;2022-07-25T12:32:07;4.70;;;4.30;;
22794;SDS011;11564;50.920;11.612;2022-07-25T12:34:33;4.90;;;4.50;;
22794;SDS011;11564;50.920;11.612;2022-07-25T12:36:59;5.77;;;5.27;;
22794;SDS011;11564;50.920;11.612;2022-07-25T12:39:24;5.23;;;4.93;;
22794;SDS011;11564;50.920;11.612;2022-07-25T12:41:50;4.83;;;4.43;;
22794;SDS011;11564;50.920;11.612;2022-07-25T12:44:15;5.93;;;5.30;;
22794;SDS011;11564;50.920;11.612;2022-07-25T12:46:41;5.67;;;5.27;;
22794;SDS011;11564;50.920;11.612;2022-07-25T12:49:07;6.83;;;5.03;;
22794;SDS011;11564;50.920;11.612;2022-07-25T12:51:32;4.93;;;4.60;;
22794;SDS011;11564;50.920;11.612;2022-07-25T12:53:58;5.30;;;5.00;;
22794;SDS011;11564;50.920;11.612;2022-07-25T12:56:23;4.57;;;4.17;;
22794;SDS011;11564;50.920;11.612;2022-07-25T12:58:49;5.93;;;4.50;;
22794;SDS011;11564;50.920;11.612;2022-07-25T13:01:15;5.17;;;4.77;;
22794;SDS011;11564;50.920;11.612;2022-07-25T13:03:40;4.70;;;4.40;;
22794;SDS011;11564;50.920;11.612;2022-07-25T13:06:06;6.27;;;4.90;;
22794;SDS011;11564;50.920;11.612;2022-07-25T13:08:32;5.17;;;4.53;;
22794;SDS011;11564;50.920;11.612;2022-07-25T13:11:01;4.50;;;4.30;;
22794;SDS011;11564;50.920;11.612;2022-07-25T13:13:27;8.57;;;4.40;;
22794;SDS011;11564;50.920;11.612;2022-07-25T13:15:53;5.50;;;4.50;;
22794;SDS011;11564;50.920;11.612;2022-07-25T13:18:19;7.53;;;5.17;;
22794;SDS011;11564;50.920;11.612;2022-07-25T13:20:44;4.90;;;4.57;;
22794;SDS011;11564;50.920;11.612;2022-07-25T13:23:10;5.30;;;5.00;;
22794;SDS011;11564;50.920;11.612;2022-07-25T13:25:35;6.03;;;5.53;;
22794;SDS011;11564;50.920;11.612;2022-07-25T13:28:02;4.87;;;4.53;;
22794;SDS011;11564;50.920;11.612;2022-07-25T13:30:28;4.47;;;4.10;;
22794;SDS011;11564;50.920;11.612;2022-07-25T13:32:54;4.60;;;4.30;;
22794;SDS011;11564;50.920;11.612;2022-07-25T13:35:20;4.40;;;4.20;;
22794;SDS011;11564;50.920;11.612;2022-07-25T13:37:45;4.43;;;4.03;;
22794;SDS011;11564;50.920;11.612;2022-07-25T13:40:11;5.60;;;4.10;;
22794;SDS011;11564;50.920;11.612;2022-07-25T13:42:37;5.60;;;4.70;;
22794;SDS011;11564;50.920;11.612;2022-07-25T13:45:03;4.90;;;3.73;;
22794;SDS011;11564;50.920;11.612;2022-07-25T13:47:30;4.20;;;4.00;;
22794;SDS011;11564;50.920;11.612;2022-07-25T13:49:56;6.53;;;4.50;;
22794;SDS011;11564;50.920;11.612;2022-07-25T13:52:22;4.63;;;4.33;;
22794;SDS011;11564;50.920;11.612;2022-07-25T13:54:48;4.30;;;4.00;;
22794;SDS011;11564;50.920;11.612;2022-07-25T13:57:13;5.07;;;4.77;;
22794;SDS011;11564;50.920;11.612;2022-07-25T13:59:39;5.10;;;4.80;;
22794;SDS011;11564;50.920;11.612;2022-07-25T14:02:04;7.03;;;4.50;;
22794;SDS011;11564;50.920;11.612;2022-07-25T14:04:30;4.77;;;4.47;;
22794;SDS011;11564;50.920;11.612;2022-07-25T14:06:56;5.40;;;5.00;;
22794;SDS011;11564;50.920;11.612;2022-07-25T14:09:23;6.00;;;5.50;;
22794;SDS011;11564;50.920;11.612;2022-07-25T14:11:48;5.70;;;5.40;;
22794;SDS011;11564;50.920;11.612;2022-07-25T14:14:14;6.13;;;5.73;;
22794;SDS011;11564;50.920;11.612;2022-07-25T14:16:40;7.43;;;5.33;;
22794;SDS011;11564;50.920;11.612;2022-07-25T14:19:06;6.53;;;5.93;;
22794;SDS011;11564;50.920;11.612;2022-07-25T14:21:33;6.40;;;5.77;;
22794;SDS011;11564;50.920;11.612;2022-07-25T14:23:59;6.73;;;6.23;;
22794;SDS011;11564;50.920;11.612;2022-07-25T14:26:25;9.63;;;6.00;;
22794;SDS011;11564;50.920;11.612;2022-07-25T14:28:52;6.63;;;5.90;;
22794;SDS011;11564;50.920;11.612;2022-07-25T14:31:20;5.70;;;5.20;;
22794;SDS011;11564;50.920;11.612;2022-07-25T14:33:46;6.27;;;5.20;;
22794;SDS011;11564;50.920;11.612;2022-07-25T14:36:11;6.90;;;6.27;;
22794;SDS011;11564;50.920;11.612;2022-07-25T14:38:37;5.70;;;5.20;;
22794;SDS011;11564;50.920;11.612;2022-07-25T14:41:03;8.60;;;6.20;;